Time;durP1;ratioP1;P1;durP2;ratioP2;P2;SDS_P1;SDS_P2;PMS_P1;PMS_P2;Temp;Humidity;BMP_temperature;BMP_pressure;BME280_temperature;BME280_humidity;BME280_pressure;Samples;Min_cycle;Max_cycle;Signal;HPM_P1;HPM_P2
2021/12/11 00:00:49;;;;;;;12.73;1.33;;;;;;;15.10;70.21;101396.78;5104281;28;20054;-70
2021/12/11 00:03:20;;;;;;;11.18;2.97;;;;;;;15.05;70.31;101388.78;5105648;27;20101;-70
2021/12/11 00:05:52;;;;;;;9.35;1.55;;;;;;;15.05;70.45;101396.75;5106145;28;20044;-69
2021/12/11 00:08:23;;;;;;;17.95;1.85;;;;;;;15.07;70.54;101384.38;5104798;28;20040;-69
2021/12/11 00:10:54;;;;;;;11.00;1.00;;;;;;;15.15;70.48;101385.31;5105819;27;20040;-70
2021/12/11 00:13:26;;;;;;;9.57;1.20;;;;;;;15.22;70.50;101380.94;5105966;28;20036;-70
2021/12/11 00:15:55;;;;;;;9.32;1.70;;;;;;;15.31;70.38;101385.41;5118755;28;20040;-70
2021/12/11 00:18:27;;;;;;;12.60;1.65;;;;;;;15.36;70.18;101381.03;5104281;28;20577;-70
2021/12/11 00:20:57;;;;;;;17.38;1.60;;;;;;;15.36;70.18;101384.53;5104200;28;20487;-70
2021/12/11 00:23:29;;;;;;;11.80;1.13;;;;;;;15.39;70.17;101370.38;5105559;27;20051;-69
2021/12/11 00:25:57;;;;;;;19.65;2.15;;;;;;;15.37;70.20;101365.03;5105539;28;20044;-70
2021/12/11 00:28:25;;;;;;;7.38;1.20;;;;;;;15.36;70.27;101357.94;5103756;28;20040;-69
2021/12/11 00:30:54;;;;;;;15.10;1.33;;;;;;;15.38;70.48;101355.28;5105289;27;20556;-70
2021/12/11 00:33:26;;;;;;;6.20;1.20;;;;;;;15.43;70.32;101354.44;5105350;28;20055;-69
2021/12/11 00:35:56;;;;;;;7.63;1.05;;;;;;;15.47;70.15;101348.25;5104949;27;20040;-70
2021/12/11 00:38:32;;;;;;;13.40;2.20;;;;;;;15.52;70.03;101351.84;5104798;28;20123;-70
2021/12/11 00:41:01;;;;;;;11.75;1.23;;;;;;;15.53;69.99;101347.44;5105133;27;20047;-70
2021/12/11 00:43:33;;;;;;;12.13;1.42;;;;;;;15.51;70.15;101343.81;5093593;28;20044;-70
2021/12/11 00:46:02;;;;;;;10.88;1.33;;;;;;;15.56;70.19;101338.59;5092036;28;20040;-70
2021/12/11 00:48:32;;;;;;;12.65;1.80;;;;;;;15.57;70.12;101330.59;5091721;28;20506;-70
2021/12/11 00:51:04;;;;;;;11.80;1.70;;;;;;;15.56;70.10;101326.13;5091763;28;20044;-70
2021/12/11 00:53:36;;;;;;;8.88;1.05;;;;;;;15.54;70.15;101335.91;5090475;28;20048;-71
2021/12/11 00:56:08;;;;;;;15.20;1.98;;;;;;;15.54;70.14;101338.56;5091271;28;20450;-70
2021/12/11 00:58:39;;;;;;;11.88;1.50;;;;;;;15.54;70.20;101341.22;5091840;28;20044;-70
2021/12/11 01:01:12;;;;;;;14.00;1.75;;;;;;;15.54;70.10;101336.81;5091916;28;20044;-70
2021/12/11 01:03:45;;;;;;;16.63;2.58;;;;;;;15.53;69.94;101344.78;5089653;28;20705;-70
2021/12/11 01:06:15;;;;;;;12.82;2.22;;;;;;;15.53;69.88;101350.09;5091829;28;20032;-70
2021/12/11 01:08:47;;;;;;;14.75;2.28;;;;;;;15.48;69.98;101349.16;5091732;28;20066;-70
2021/12/11 01:11:19;;;;;;;12.07;1.42;;;;;;;15.42;70.13;101349.13;5107266;28;20093;-70
2021/12/11 01:13:51;;;;;;;15.00;2.45;;;;;;;15.34;70.23;101337.53;5090341;28;20129;-69
2021/12/11 01:16:20;;;;;;;20.05;3.35;;;;;;;15.30;70.40;101339.28;5091230;28;20033;-70
2021/12/11 01:18:56;;;;;;;13.82;2.00;;;;;;;15.27;70.29;101341.06;5088160;28;20135;-70
2021/12/11 01:21:32;;;;;;;10.80;1.48;;;;;;;15.23;70.37;101339.25;5090140;28;20674;-70
2021/12/11 01:24:14;;;;;;;16.40;1.70;;;;;;;15.19;70.36;101348.09;5090740;28;20040;-70
2021/12/11 01:26:46;;;;;;;14.07;2.58;;;;;;;15.17;70.51;101353.38;5088780;28;20064;-70
2021/12/11 01:29:14;;;;;;;12.45;1.70;;;;;;;15.14;70.59;101340.97;5095145;28;20585;-70
2021/12/11 01:31:42;;;;;;;11.23;2.03;;;;;;;15.12;70.42;101333.84;5089721;28;20131;-70
2021/12/11 01:34:11;;;;;;;19.33;1.90;;;;;;;15.04;70.58;101336.47;5090660;28;20132;-70
2021/12/11 01:36:40;;;;;;;13.13;1.60;;;;;;;14.98;70.77;101343.50;5088447;28;20101;-70
2021/12/11 01:39:11;;;;;;;10.68;2.30;;;;;;;14.94;70.89;101344.38;5090454;28;20051;-70
2021/12/11 01:41:39;;;;;;;12.65;1.65;;;;;;;14.94;71.00;101339.06;5072888;28;20075;-70
2021/12/11 01:44:11;;;;;;;11.60;1.73;;;;;;;14.98;71.08;101328.44;5086728;28;20097;-70
2021/12/11 01:46:39;;;;;;;13.82;1.30;;;;;;;14.89;71.16;101324.84;5090446;28;20054;-70
2021/12/11 01:49:13;;;;;;;13.10;1.95;;;;;;;14.88;71.32;101329.28;5090366;28;20131;-71
2021/12/11 01:51:44;;;;;;;9.90;1.13;;;;;;;14.87;71.51;101324.84;5089196;28;20127;-70
2021/12/11 01:54:17;;;;;;;6.60;1.10;;;;;;;14.84;71.67;101319.50;5087824;28;20063;-70
2021/12/11 01:56:48;;;;;;;13.57;1.70;;;;;;;14.82;71.92;101317.72;5094185;28;20047;-69
2021/12/11 01:59:20;;;;;;;11.65;2.05;;;;;;;14.83;72.09;101322.16;5104391;28;20050;-70
2021/12/11 02:01:51;;;;;;;12.82;1.60;;;;;;;14.83;71.98;101316.84;5089713;28;20479;-70
2021/12/11 02:04:24;;;;;;;14.90;1.70;;;;;;;14.80;72.22;101307.06;5088706;28;20047;-70
2021/12/11 02:06:53;;;;;;;10.52;1.63;;;;;;;14.80;72.34;101312.38;5090476;28;20427;-70
2021/12/11 02:09:24;;;;;;;11.88;2.22;;;;;;;14.85;72.16;101305.31;5089670;28;20048;-70
2021/12/11 02:12:04;;;;;;;11.82;1.27;;;;;;;14.87;72.12;101306.22;5089704;28;22526;-70
2021/12/11 02:14:37;;;;;;;13.07;2.03;;;;;;;14.84;72.38;101305.31;5088617;28;20062;-70
2021/12/11 02:17:06;;;;;;;6.00;1.50;;;;;;;14.82;72.53;101312.41;5088709;28;20093;-70
2021/12/11 02:19:39;;;;;;;16.42;1.77;;;;;;;14.86;72.47;101312.41;5089599;28;20063;-71
2021/12/11 02:22:12;;;;;;;14.13;1.70;;;;;;;14.88;72.51;101312.44;5088496;28;20048;-71
2021/12/11 02:24:44;;;;;;;14.00;1.50;;;;;;;14.90;72.37;101314.22;5089042;28;20081;-70
2021/12/11 02:27:15;;;;;;;7.70;1.52;;;;;;;14.92;72.37;101312.47;5089483;28;20047;-70
2021/12/11 02:29:48;;;;;;;14.23;2.78;;;;;;;14.93;72.32;101314.25;5089731;28;20665;-70
2021/12/11 02:32:25;;;;;;;8.30;1.60;;;;;;;14.87;72.23;101308.88;5089086;28;20051;-70
2021/12/11 02:34:56;;;;;;;13.95;1.60;;;;;;;14.80;72.30;101293.78;5088204;28;20135;-70
2021/12/11 02:37:36;;;;;;;11.60;1.83;;;;;;;14.75;72.60;101295.53;5089703;28;20047;-70
2021/12/11 02:40:13;;;;;;;12.02;1.70;;;;;;;14.68;72.81;101297.25;5105094;28;20131;-70
2021/12/11 02:42:46;;;;;;;10.32;1.77;;;;;;;14.64;72.97;101286.56;5099850;28;20044;-70
2021/12/11 02:45:18;;;;;;;9.93;1.70;;;;;;;14.62;72.97;101281.25;5095082;28;20123;-70
2021/12/11 02:47:48;;;;;;;14.45;1.85;;;;;;;14.60;73.01;101287.44;5089219;28;20040;-70
2021/12/11 02:50:22;;;;;;;70.07;28.80;;;;;;;14.57;72.82;101303.38;5089369;28;20128;-70
2021/12/11 02:52:57;;;;;;;64.57;24.98;;;;;;;14.49;72.85;101299.75;5088234;28;20050;-70
2021/12/11 02:55:30;;;;;;;26.08;8.27;;;;;;;14.42;72.99;101300.56;5087891;28;20062;-70
2021/12/11 02:58:02;;;;;;;32.92;13.60;;;;;;;14.35;72.94;101297.81;5087863;28;20119;-70
2021/12/11 03:00:34;;;;;;;26.88;11.82;;;;;;;14.29;72.92;101300.44;5088022;28;20565;-70
2021/12/11 03:03:06;;;;;;;19.30;6.13;;;;;;;14.27;72.88;101299.50;5089097;28;20064;-70
2021/12/11 03:05:40;;;;;;;18.63;3.90;;;;;;;14.26;72.76;101297.72;5088453;28;20054;-71
2021/12/11 03:08:10;;;;;;;;;;;;;;;14.19;72.65;101301.19;5104857;28;20039;-70
2021/12/11 03:10:40;;;;;;;14.38;3.00;;;;;;;14.18;72.69;101295.88;5089152;28;19931;-70
2021/12/11 03:13:09;;;;;;;15.77;2.00;;;;;;;14.14;72.71;101304.69;5087453;28;20446;-71
2021/12/11 03:15:36;;;;;;;10.98;2.05;;;;;;;14.06;72.88;101304.63;5088786;28;20683;-70
2021/12/11 03:18:07;;;;;;;10.32;1.83;;;;;;;13.85;73.38;101299.97;5088728;28;20048;-70
2021/12/11 03:20:37;;;;;;;11.35;1.85;;;;;;;13.79;74.00;101305.22;5089042;28;20051;-70
2021/12/11 03:23:07;;;;;;;11.20;1.58;;;;;;;13.77;74.45;101306.09;5087990;28;20447;-70
2021/12/11 03:25:37;;;;;;;10.50;1.63;;;;;;;13.68;75.39;101312.16;5087812;28;20051;-70
2021/12/11 03:28:06;;;;;;;10.85;3.00;;;;;;;13.60;76.18;101315.59;5087416;28;20036;-70
2021/12/11 03:30:36;;;;;;;15.00;2.03;;;;;;;13.57;76.32;101312.06;5068675;28;20048;-71
2021/12/11 03:33:07;;;;;;;8.50;2.58;;;;;;;13.59;75.73;101304.09;5082714;28;20495;-71
2021/12/11 03:35:35;;;;;;;10.20;1.63;;;;;;;13.54;75.39;101312.00;5087737;28;20043;-70
2021/12/11 03:38:03;;;;;;;12.85;1.65;;;;;;;13.46;75.33;101318.97;5087968;28;20044;-70
2021/12/11 03:40:32;;;;;;;14.40;2.03;;;;;;;13.46;75.49;101324.25;5086946;28;20543;-70
2021/12/11 03:43:04;;;;;;;12.27;1.58;;;;;;;13.49;75.42;101332.28;5087426;28;20592;-70
2021/12/11 03:45:34;;;;;;;10.93;2.15;;;;;;;13.51;75.44;101329.66;5103246;28;20049;-70
2021/12/11 03:48:07;;;;;;;10.90;1.98;;;;;;;13.52;75.64;101334.94;5088864;28;20040;-70
2021/12/11 03:50:37;;;;;;;10.00;2.00;;;;;;;13.51;75.53;101340.25;5088315;28;20048;-70
2021/12/11 03:53:05;;;;;;;11.05;2.25;;;;;;;13.50;75.48;101335.81;5088685;28;20502;-70
2021/12/11 03:55:38;;;;;;;11.73;2.00;;;;;;;13.47;75.54;101339.31;5088472;28;20138;-70
2021/12/11 03:58:08;;;;;;;11.88;2.13;;;;;;;13.45;75.56;101346.38;5088632;28;20032;-70
2021/12/11 04:00:39;;;;;;;15.07;2.25;;;;;;;13.44;75.58;101338.41;5088443;28;20139;-70
2021/12/11 04:03:08;;;;;;;8.50;1.50;;;;;;;13.42;75.53;101340.13;5087170;28;20040;-70
2021/12/11 04:05:40;;;;;;;14.55;1.98;;;;;;;13.41;75.36;101333.94;5086755;28;20040;-70
2021/12/11 04:08:12;;;;;;;11.77;2.40;;;;;;;13.37;75.20;101329.47;5086787;28;20115;-70
2021/12/11 04:10:40;;;;;;;13.07;1.92;;;;;;;13.29;75.42;101335.53;5088551;28;20047;-71
2021/12/11 04:13:11;;;;;;;10.15;1.80;;;;;;;13.28;75.43;101332.00;5103439;28;20044;-70
2021/12/11 04:15:40;;;;;;;12.02;1.85;;;;;;;13.24;75.71;101327.53;5088744;28;20040;-70
2021/12/11 04:18:09;;;;;;;12.55;1.75;;;;;;;13.23;75.87;101331.03;5089295;27;20044;-70
2021/12/11 04:20:39;;;;;;;13.60;1.80;;;;;;;13.26;75.74;101338.16;5091645;28;20060;-71
2021/12/11 04:23:11;;;;;;;10.18;1.40;;;;;;;13.25;75.90;101342.56;5089962;28;20047;-70
2021/12/11 04:25:41;;;;;;;42.13;22.67;;;;;;;13.23;75.99;101341.66;5091943;28;20400;-70
2021/12/11 04:28:11;;;;;;;37.15;23.40;;;;;;;13.11;75.97;101338.78;5090375;28;20040;-70
2021/12/11 04:30:42;;;;;;;33.95;20.90;;;;;;;13.02;75.95;101346.59;5092136;28;20060;-70
2021/12/11 04:33:10;;;;;;;26.83;15.25;;;;;;;12.96;75.89;101339.44;5073555;28;20040;-70
2021/12/11 04:35:38;;;;;;;16.00;5.20;;;;;;;12.83;76.31;101336.59;5091346;28;20040;-70
2021/12/11 04:38:09;;;;;;;24.23;7.88;;;;;;;12.71;76.84;101340.84;5091845;28;20039;-70
2021/12/11 04:40:40;;;;;;;17.58;7.68;;;;;;;12.68;77.21;101340.75;5091367;28;20044;-70
2021/12/11 04:43:15;;;;;;;29.83;14.07;;;;;;;12.72;77.28;101341.72;5077062;28;20036;-70
2021/12/11 04:45:46;;;;;;;28.23;12.35;;;;;;;12.81;77.08;101349.81;5091789;28;20074;-70
2021/12/11 04:48:23;;;;;;;25.73;11.20;;;;;;;12.87;76.85;101351.66;5091188;28;20532;-70
2021/12/11 04:50:57;;;;;;;21.98;10.57;;;;;;;12.90;76.67;101343.75;5096333;28;20547;-70
2021/12/11 04:53:40;;;;;;;;;;;;;;;12.90;76.75;101334.06;5092136;28;20101;-70
2021/12/11 04:56:38;;;;;;;26.98;10.52;;;;;;;12.94;77.01;101345.56;5089790;28;19924;-70
2021/12/11 04:59:26;;;;;;;20.65;6.55;;;;;;;12.96;77.41;101333.25;5091497;28;20491;-70
2021/12/11 05:02:08;;;;;;;14.85;4.30;;;;;;;12.94;77.36;101334.97;5089679;28;20052;-69
2021/12/11 05:07:29;;;;;;;18.88;4.22;;;;;;;12.95;77.07;101327.06;5087780;28;20048;-70
2021/12/11 05:10:02;;;;;;;16.55;6.22;;;;;;;12.96;76.91;101336.81;5090666;28;20048;-69
2021/12/11 05:12:35;;;;;;;23.63;10.88;;;;;;;12.88;77.01;101324.28;5079194;28;20085;-70
2021/12/11 05:15:08;;;;;;;17.05;6.70;;;;;;;12.90;76.98;101320.81;5089710;28;21573;-70
2021/12/11 05:17:36;;;;;;;17.70;6.93;;;;;;;12.89;77.16;101323.44;5090368;28;20078;-70
2021/12/11 05:20:07;;;;;;;15.57;6.00;;;;;;;12.84;77.30;101318.06;5089398;28;20078;-71
2021/12/11 05:22:35;;;;;;;15.65;6.20;;;;;;;12.81;77.38;101323.31;5090315;28;20411;-70
2021/12/11 05:25:04;;;;;;;59.45;23.73;;;;;;;12.75;77.54;101308.22;5091400;28;20115;-70
2021/12/11 05:27:32;;;;;;;122.80;52.47;;;;;;;12.69;77.83;101302.81;5089601;28;20395;-70
2021/12/11 05:30:01;;;;;;;41.28;18.10;;;;;;;12.69;78.04;101286.94;5088924;28;20131;-70
2021/12/11 05:32:30;;;;;;;28.17;12.38;;;;;;;12.75;78.08;101296.72;5089451;28;20037;-70
2021/12/11 05:34:58;;;;;;;21.13;8.70;;;;;;;12.81;78.16;101298.56;5091249;28;20059;-70
2021/12/11 05:37:27;;;;;;;23.98;8.57;;;;;;;12.85;78.07;101290.72;5089383;28;20036;-70
2021/12/11 05:39:55;;;;;;;45.05;22.38;;;;;;;12.90;78.13;101293.41;5090629;28;20123;-70
2021/12/11 05:42:23;;;;;;;28.10;9.90;;;;;;;12.89;78.03;101289.88;5090785;28;20036;-70
2021/12/11 05:44:50;;;;;;;15.63;5.88;;;;;;;12.93;78.01;101290.81;5088709;28;20044;-70
2021/12/11 05:47:20;;;;;;;30.90;16.02;;;;;;;12.95;78.06;101289.06;5105472;28;20492;-69
2021/12/11 05:49:49;;;;;;;26.10;11.07;;;;;;;12.91;77.95;101285.50;5089075;28;20052;-70
2021/12/11 05:52:18;;;;;;;44.95;31.48;;;;;;;12.94;78.20;101292.56;5089346;28;20056;-70
2021/12/11 05:54:47;;;;;;;40.20;20.05;;;;;;;12.96;78.16;101293.50;5089525;28;20426;-69
2021/12/11 05:57:19;;;;;;;117.13;78.03;;;;;;;12.95;78.49;101286.41;5090147;28;20040;-70
2021/12/11 05:59:48;;;;;;;81.00;51.13;;;;;;;13.03;78.68;101282.13;5088060;28;20131;-70
2021/12/11 06:02:21;;;;;;;49.72;27.08;;;;;;;13.15;78.60;101290.28;5089530;28;20051;-70
2021/12/11 06:04:54;;;;;;;43.75;22.38;;;;;;;13.12;78.18;101287.56;5089117;28;20093;-70
2021/12/11 06:07:25;;;;;;;42.20;24.75;;;;;;;13.03;77.99;101288.31;5090464;28;20051;-70
2021/12/11 06:09:56;;;;;;;26.50;13.00;;;;;;;13.02;78.13;101277.69;5089701;28;20044;-70
2021/12/11 06:12:24;;;;;;;25.77;12.45;;;;;;;13.06;78.28;101283.03;5088356;28;20106;-69
2021/12/11 06:14:53;;;;;;;25.58;13.93;;;;;;;13.13;78.54;101290.25;5088812;28;20551;-69
2021/12/11 06:17:25;;;;;;;30.40;16.92;;;;;;;13.29;79.09;101288.69;5089202;28;20051;-70
2021/12/11 06:19:56;;;;;;;26.00;13.63;;;;;;;13.39;79.34;101285.28;5071704;28;20044;-69
2021/12/11 06:22:27;;;;;;;38.28;26.52;;;;;;;13.57;79.64;101285.53;5089612;28;20054;-69
2021/12/11 06:24:56;;;;;;;61.90;46.63;;;;;;;13.86;79.74;101290.25;5089808;28;20044;-70
2021/12/11 06:27:25;;;;;;;15.70;7.22;;;;;;;14.10;79.43;101285.19;5089810;28;20119;-70
2021/12/11 06:29:54;;;;;;;21.42;9.73;;;;;;;14.37;79.27;101284.56;5090184;28;20048;-70
2021/12/11 06:32:23;;;;;;;21.23;11.23;;;;;;;14.66;79.34;101292.78;5088758;28;20043;-69
2021/12/11 06:34:52;;;;;;;26.20;14.15;;;;;;;14.94;79.44;101294.75;5089809;28;20127;-70
2021/12/11 06:37:22;;;;;;;29.55;17.35;;;;;;;15.14;79.28;101295.78;5089984;28;20553;-70
2021/12/11 06:39:51;;;;;;;32.28;19.13;;;;;;;15.36;79.28;101288.75;5089111;28;20131;-70
2021/12/11 06:42:20;;;;;;;47.50;28.58;;;;;;;15.57;79.16;101298.66;5089566;28;20047;-70
2021/12/11 06:44:48;;;;;;;33.85;20.80;;;;;;;15.79;78.90;101296.94;5088358;28;20651;-70
2021/12/11 06:47:16;;;;;;;27.65;12.20;;;;;;;15.97;78.71;101304.97;5088595;28;20101;-70
2021/12/11 06:49:45;;;;;;;27.50;14.27;;;;;;;16.16;78.19;101304.13;5088304;28;20144;-70
2021/12/11 06:52:16;;;;;;;23.33;8.73;;;;;;;16.36;77.87;101296.16;5088758;28;20085;-70
2021/12/11 06:54:47;;;;;;;25.33;8.80;;;;;;;16.56;76.36;101306.81;5089374;28;20055;-70
2021/12/11 06:57:15;;;;;;;22.52;6.28;;;;;;;16.76;75.85;101306.84;5089686;28;20127;-70
2021/12/11 06:59:43;;;;;;;20.17;5.75;;;;;;;16.99;74.25;101297.03;5087014;28;20032;-70
2021/12/11 07:02:11;;;;;;;23.92;4.95;;;;;;;17.26;72.98;101299.66;5086921;28;20725;-70
2021/12/11 07:04:39;;;;;;;29.95;4.22;;;;;;;17.50;71.66;101296.88;5089151;28;20048;-70
2021/12/11 07:07:07;;;;;;;21.67;4.80;;;;;;;17.81;69.62;101294.97;5087494;28;20039;-70
2021/12/11 07:09:35;;;;;;;21.77;4.22;;;;;;;18.03;67.07;101279.72;5088865;28;20438;-70
2021/12/11 07:12:05;;;;;;;24.10;4.68;;;;;;;18.23;67.10;101279.56;5087858;28;20043;-70
2021/12/11 07:14:33;;;;;;;28.45;4.82;;;;;;;18.43;66.24;101290.09;5086381;28;20044;-67
2021/12/11 07:17:02;;;;;;;33.90;4.80;;;;;;;18.66;65.55;101289.03;5078177;28;20037;-68
2021/12/11 07:19:30;;;;;;;32.80;5.85;;;;;;;18.90;62.63;101270.97;5075173;28;20135;-66
2021/12/11 07:21:58;;;;;;;35.38;5.18;;;;;;;18.97;60.98;101272.69;5086923;28;20040;-67
2021/12/11 07:24:41;;;;;;;35.60;4.70;;;;;;;19.09;60.50;101276.13;5078728;28;20124;-68
2021/12/11 07:27:12;;;;;;;26.08;3.95;;;;;;;19.19;59.55;101267.97;5077175;28;20047;-68
2021/12/11 07:29:41;;;;;;;32.60;4.43;;;;;;;19.25;59.23;101260.75;5076569;28;20510;-67
2021/12/11 07:32:11;;;;;;;42.65;4.75;;;;;;;19.33;58.68;101244.59;5077623;28;20048;-68
2021/12/11 07:34:40;;;;;;;24.30;3.88;;;;;;;19.33;58.10;101231.22;5085084;28;20040;-68
2021/12/11 07:37:08;;;;;;;33.15;5.80;;;;;;;19.36;57.70;101233.88;5083483;28;20105;-67
2021/12/11 07:39:36;;;;;;;29.23;4.20;;;;;;;19.48;57.58;101206.94;5085418;28;20039;-66
2021/12/11 07:42:05;;;;;;;32.15;4.15;;;;;;;19.53;57.39;101207.75;5085862;28;20119;-66
2021/12/11 07:44:37;;;;;;;29.17;4.50;;;;;;;19.60;56.12;101219.28;5085961;28;20036;-67
2021/12/11 07:47:07;;;;;;;30.15;4.68;;;;;;;19.67;55.12;101219.19;5086338;28;20565;-65
2021/12/11 07:49:35;;;;;;;16.55;3.38;;;;;;;19.58;55.55;101216.63;5102587;28;20136;-67
2021/12/11 07:52:03;;;;;;;35.13;4.93;;;;;;;19.64;56.14;101215.63;5087647;28;20078;-67
2021/12/11 07:54:31;;;;;;;17.98;3.03;;;;;;;19.66;56.10;101216.50;5090774;28;20442;-67
2021/12/11 07:57:00;;;;;;;34.95;4.32;;;;;;;19.72;56.39;101229.81;5089456;28;20411;-66
2021/12/11 07:59:28;;;;;;;28.45;3.85;;;;;;;19.74;56.50;101234.25;5088221;28;20044;-67
2021/12/11 08:01:57;;;;;;;23.50;3.85;;;;;;;19.79;56.92;101224.34;5089188;28;20040;-67
2021/12/11 08:04:25;;;;;;;28.33;4.25;;;;;;;19.84;57.25;101235.88;5090582;28;20048;-65
2021/12/11 08:06:53;;;;;;;22.02;3.65;;;;;;;19.83;57.84;101225.16;5089446;28;20136;-67
2021/12/11 08:09:22;;;;;;;14.05;2.90;;;;;;;19.88;57.36;101242.97;5106147;28;20121;-70
2021/12/11 08:11:51;;;;;;;22.92;2.60;;;;;;;19.98;56.82;101238.34;5080300;28;20048;-66
2021/12/11 08:14:20;;;;;;;17.13;2.88;;;;;;;20.06;56.76;101246.28;5091336;28;20543;-67
2021/12/11 08:16:49;;;;;;;25.65;3.65;;;;;;;20.11;55.63;101247.97;5090327;28;20040;-66
2021/12/11 08:19:22;;;;;;;33.53;4.35;;;;;;;20.15;55.76;101251.50;5091129;28;20496;-67
2021/12/11 08:21:53;;;;;;;28.17;4.17;;;;;;;20.31;55.63;101239.59;5079887;28;20048;-69
2021/12/11 08:24:23;;;;;;;27.15;4.82;;;;;;;20.45;56.00;101245.66;5089619;28;20288;-67
2021/12/11 08:26:54;;;;;;;14.45;3.15;;;;;;;20.46;55.43;101251.91;5090457;28;20047;-67
2021/12/11 08:29:22;;;;;;;20.48;3.83;;;;;;;20.42;55.73;101234.97;5088419;28;20456;-68
2021/12/11 08:31:53;;;;;;;19.35;3.10;;;;;;;20.54;55.64;101231.22;5089806;28;20492;-68
2021/12/11 08:34:23;;;;;;;16.23;2.80;;;;;;;20.61;55.54;101217.63;5090186;28;20043;-69
2021/12/11 08:36:52;;;;;;;22.80;3.33;;;;;;;20.71;55.35;101214.78;5087841;28;20039;-69
2021/12/11 08:39:21;;;;;;;18.10;4.18;;;;;;;20.69;52.21;101198.72;5088833;28;20044;-69
2021/12/11 08:41:53;;;;;;;17.70;3.17;;;;;;;20.42;52.74;101197.41;5069417;28;20074;-66
2021/12/11 08:44:23;;;;;;;20.88;4.75;;;;;;;20.15;53.38;101187.16;5079349;28;20729;-67
2021/12/11 08:46:54;;;;;;;15.95;2.88;;;;;;;19.79;54.08;101189.50;5081383;28;20047;-69
2021/12/11 08:49:26;;;;;;;15.05;2.67;;;;;;;19.57;55.29;101179.13;5087727;28;20048;-68
2021/12/11 08:51:57;;;;;;;18.15;3.00;;;;;;;19.43;56.16;101173.94;5087318;28;20131;-67
2021/12/11 08:54:28;;;;;;;25.58;4.47;;;;;;;19.37;56.82;101174.91;5070335;28;20047;-68
2021/12/11 08:56:59;;;;;;;27.73;3.25;;;;;;;19.45;57.07;101148.03;5093402;28;20569;-68
2021/12/11 08:59:32;;;;;;;24.05;3.63;;;;;;;19.45;56.40;101156.06;5090053;28;20047;-66
2021/12/11 09:02:05;;;;;;;29.33;4.55;;;;;;;19.48;55.72;101126.59;5083848;28;20135;-66
2021/12/11 09:04:39;;;;;;;25.42;3.53;;;;;;;19.42;57.02;101157.00;5074680;28;20450;-67
2021/12/11 09:07:10;;;;;;;15.18;3.75;;;;;;;19.49;57.33;101150.66;5085399;28;20568;-66
2021/12/11 09:09:42;;;;;;;21.05;4.53;;;;;;;19.51;57.12;101147.97;5104429;28;20461;-67
2021/12/11 09:12:14;;;;;;;22.33;4.35;;;;;;;19.48;57.90;101130.19;5088738;28;20051;-66
2021/12/11 09:14:45;;;;;;;16.02;3.80;;;;;;;19.37;58.13;101141.88;5087960;28;20757;-67
2021/12/11 09:17:17;;;;;;;25.33;4.25;;;;;;;19.24;58.58;101132.25;5089549;28;20040;-66
2021/12/11 09:19:51;;;;;;;22.58;3.50;;;;;;;19.03;58.36;101134.31;5088343;28;20051;-65
2021/12/11 09:22:22;;;;;;;28.27;3.45;;;;;;;18.86;58.61;101128.31;5086810;28;20066;-67
2021/12/11 09:24:55;;;;;;;23.05;4.88;;;;;;;18.76;59.23;101126.66;5085552;28;20048;-66
2021/12/11 09:27:26;;;;;;;18.70;3.38;;;;;;;18.67;59.59;101137.47;5088748;28;20043;-68
2021/12/11 09:29:56;;;;;;;26.30;4.55;;;;;;;18.61;59.55;101126.84;5089642;28;20094;-68
2021/12/11 09:32:30;;;;;;;23.17;3.50;;;;;;;18.59;59.18;101121.50;5089421;28;20052;-67
2021/12/11 09:35:07;;;;;;;19.17;3.88;;;;;;;18.55;59.37;101119.78;5088516;28;20127;-68
2021/12/11 09:37:36;;;;;;;20.00;3.30;;;;;;;18.54;59.59;101122.44;5089931;28;20055;-68
2021/12/11 09:40:11;;;;;;;20.83;4.78;;;;;;;18.55;59.68;101117.09;5084589;28;20127;-65
2021/12/11 09:42:38;;;;;;;15.45;2.78;;;;;;;18.55;59.40;101100.13;5088797;28;20672;-68
2021/12/11 09:45:12;;;;;;;18.48;3.17;;;;;;;18.59;59.68;101109.91;5091198;28;20436;-67
2021/12/11 09:47:50;;;;;;;23.02;4.60;;;;;;;18.65;60.02;101096.47;5108429;27;20048;-67
2021/12/11 09:50:22;;;;;;;28.92;4.13;;;;;;;18.72;60.28;101092.81;5090425;28;20040;-67
2021/12/11 09:52:51;;;;;;;17.48;2.90;;;;;;;18.78;60.41;101094.53;5088356;28;20051;-67
2021/12/11 09:55:22;;;;;;;18.17;3.88;;;;;;;18.86;59.73;101082.84;5089110;28;20119;-66
2021/12/11 09:57:55;;;;;;;21.40;4.45;;;;;;;18.90;59.27;101084.59;5089249;28;20040;-65
2021/12/11 10:00:28;;;;;;;14.43;3.00;;;;;;;18.92;58.82;101085.44;5088497;28;20036;-67
2021/12/11 10:02:56;;;;;;;17.83;2.85;;;;;;;18.94;58.19;101077.38;5084475;28;20040;-67
2021/12/11 10:05:32;;;;;;;16.88;2.92;;;;;;;18.98;58.69;101077.31;5088406;28;20093;-68
2021/12/11 10:08:25;;;;;;;18.85;3.90;;;;;;;19.00;58.80;101062.13;5088524;28;20043;-66
2021/12/11 10:10:52;;;;;;;16.95;2.80;;;;;;;18.99;58.99;101065.72;5088536;28;20070;-68
2021/12/11 10:13:21;;;;;;;28.92;5.20;;;;;;;19.02;59.08;101020.19;5089474;28;20048;-65
2021/12/11 10:15:50;;;;;;;21.88;4.50;;;;;;;19.00;59.31;101013.97;5088642;28;20079;-65
2021/12/11 10:18:21;;;;;;;27.17;5.10;;;;;;;19.02;58.57;101005.91;5088816;28;20048;-65
2021/12/11 10:20:54;;;;;;;21.27;4.55;;;;;;;19.04;58.52;101006.75;5088399;28;20044;-65
2021/12/11 10:23:28;;;;;;;20.70;4.22;;;;;;;19.02;58.80;101008.59;5088769;28;20048;-66
2021/12/11 10:25:59;;;;;;;28.60;6.72;;;;;;;19.04;58.14;101007.63;5082628;28;20455;-66
2021/12/11 10:28:29;;;;;;;20.23;4.43;;;;;;;18.98;58.25;100999.72;5106367;27;20118;-67
2021/12/11 10:31:06;;;;;;;24.38;5.38;;;;;;;19.01;58.83;100964.00;5096273;28;20115;-66
2021/12/11 10:33:34;;;;;;;23.08;5.38;;;;;;;18.97;59.68;101003.28;5089246;28;20467;-68
2021/12/11 10:36:09;;;;;;;20.30;5.22;;;;;;;18.97;60.23;100999.75;5088955;28;20040;-66
2021/12/11 10:38:38;;;;;;;15.15;3.85;;;;;;;18.93;60.79;100992.66;5088780;28;20131;-67
2021/12/11 10:41:10;;;;;;;24.02;5.00;;;;;;;18.93;60.74;101006.94;5075959;28;20043;-67
2021/12/11 10:43:42;;;;;;;26.23;5.57;;;;;;;18.96;60.95;100973.91;5072858;28;20059;-67
2021/12/11 10:46:16;;;;;;;21.73;6.00;;;;;;;18.92;61.07;100969.47;5071779;28;20036;-68
2021/12/11 10:48:46;;;;;;;27.80;5.90;;;;;;;18.91;61.13;100976.63;5086308;28;20040;-68
2021/12/11 10:51:17;;;;;;;18.77;4.95;;;;;;;18.89;61.46;100972.22;5083852;28;20043;-67
2021/12/11 10:53:48;;;;;;;26.30;5.25;;;;;;;18.91;61.62;100968.59;5060111;28;20048;-68
2021/12/11 10:56:18;;;;;;;18.80;4.88;;;;;;;18.93;62.06;100948.06;5054152;28;20495;-67
2021/12/11 10:58:50;;;;;;;13.48;4.63;;;;;;;18.94;61.25;100949.84;5085103;28;20036;-66
2021/12/11 11:01:24;;;;;;;20.33;4.05;;;;;;;18.97;60.49;100955.13;5076274;28;20051;-66
2021/12/11 11:03:56;;;;;;;14.18;4.88;;;;;;;18.98;60.04;100938.16;5080737;28;20067;-67
2021/12/11 11:06:23;;;;;;;19.20;4.75;;;;;;;19.01;60.56;100950.63;5077474;28;20040;-66
2021/12/11 11:08:54;;;;;;;18.77;4.82;;;;;;;19.05;59.66;100915.75;5067749;28;20044;-65
2021/12/11 11:11:26;;;;;;;26.08;5.55;;;;;;;19.10;59.11;100940.63;5092603;28;20122;-65
2021/12/11 11:13:54;;;;;;;14.25;3.40;;;;;;;19.14;59.56;100951.31;5088706;28;20044;-67
2021/12/11 11:16:24;;;;;;;20.63;4.68;;;;;;;19.15;59.20;100927.19;5085957;28;20070;-66
2021/12/11 11:18:53;;;;;;;15.25;3.83;;;;;;;19.16;59.73;100937.00;5084917;28;20119;-67
2021/12/11 11:21:25;;;;;;;23.80;5.63;;;;;;;19.18;59.69;100934.28;5072536;28;20463;-65
2021/12/11 11:23:53;;;;;;;23.95;4.85;;;;;;;19.16;60.20;100944.16;5083930;28;20399;-67
2021/12/11 11:26:25;;;;;;;26.90;6.03;;;;;;;19.21;60.47;100932.44;5085161;28;20115;-65
2021/12/11 11:28:54;;;;;;;19.73;4.88;;;;;;;19.19;60.35;100949.44;5084783;28;20139;-66
2021/12/11 11:31:27;;;;;;;25.20;5.68;;;;;;;19.24;60.27;100937.72;5088427;28;20052;-65
2021/12/11 11:33:56;;;;;;;20.55;5.05;;;;;;;19.33;60.38;100917.97;5087541;28;20109;-66
2021/12/11 11:36:26;;;;;;;17.98;4.45;;;;;;;19.34;60.20;100957.22;5086994;28;20071;-66